sensor_id;sensor_type;location;lat;lon;timestamp;P1;durP1;ratioP1;P2;durP2;ratioP2
54919;SDS011;63804;53.120;8.764;2023-06-14T00:02:17;5.53;;;2.08;;
54919;SDS011;63804;53.120;8.764;2023-06-14T00:04:45;4.55;;;1.90;;
54919;SDS011;63804;53.120;8.764;2023-06-14T00:07:12;5.38;;;2.25;;
54919;SDS011;63804;53.120;8.764;2023-06-14T00:09:40;6.32;;;2.20;;
54919;SDS011;63804;53.120;8.764;2023-06-14T00:12:08;6.70;;;2.33;;
54919;SDS011;63804;53.120;8.764;2023-06-14T00:14:35;4.82;;;2.20;;
54919;SDS011;63804;53.120;8.764;2023-06-14T00:17:02;4.30;;;1.90;;
54919;SDS011;63804;53.120;8.764;2023-06-14T00:19:30;8.93;;;2.50;;
54919;SDS011;63804;53.120;8.764;2023-06-14T00:22:01;3.38;;;1.75;;
54919;SDS011;63804;53.120;8.764;2023-06-14T00:24:28;6.65;;;2.03;;
54919;SDS011;63804;53.120;8.764;2023-06-14T00:26:56;6.65;;;2.10;;
54919;SDS011;63804;53.120;8.764;2023-06-14T00:29:23;5.35;;;2.38;;
54919;SDS011;63804;53.120;8.764;2023-06-14T00:31:50;7.80;;;2.65;;
54919;SDS011;63804;53.120;8.764;2023-06-14T00:34:17;7.35;;;2.20;;
54919;SDS011;63804;53.120;8.764;2023-06-14T00:36:45;6.00;;;1.95;;
54919;SDS011;63804;53.120;8.764;2023-06-14T00:39:12;6.55;;;2.28;;
54919;SDS011;63804;53.120;8.764;2023-06-14T00:41:39;7.07;;;1.98;;
54919;SDS011;63804;53.120;8.764;2023-06-14T00:44:06;4.10;;;2.25;;
54919;SDS011;63804;53.120;8.764;2023-06-14T00:46:34;6.00;;;2.10;;
54919;SDS011;63804;53.120;8.764;2023-06-14T00:49:01;6.97;;;2.33;;
54919;SDS011;63804;53.120;8.764;2023-06-14T00:51:29;5.65;;;2.05;;
54919;SDS011;63804;53.120;8.764;2023-06-14T00:53:56;7.18;;;2.30;;
54919;SDS011;63804;53.120;8.764;2023-06-14T00:56:23;6.13;;;2.33;;
54919;SDS011;63804;53.120;8.764;2023-06-14T00:58:51;5.78;;;2.67;;
54919;SDS011;63804;53.120;8.764;2023-06-14T01:01:18;4.82;;;2.08;;
54919;SDS011;63804;53.120;8.764;2023-06-14T01:03:46;7.10;;;2.30;;
54919;SDS011;63804;53.120;8.764;2023-06-14T01:06:23;6.65;;;2.20;;
54919;SDS011;63804;53.120;8.764;2023-06-14T01:11:41;5.95;;;2.45;;
54919;SDS011;63804;53.120;8.764;2023-06-14T01:14:17;5.72;;;2.40;;
54919;SDS011;63804;53.120;8.764;2023-06-14T01:16:45;7.20;;;2.78;;
54919;SDS011;63804;53.120;8.764;2023-06-14T01:19:14;5.32;;;2.50;;
54919;SDS011;63804;53.120;8.764;2023-06-14T01:21:42;5.75;;;2.53;;
54919;SDS011;63804;53.120;8.764;2023-06-14T01:24:10;5.80;;;2.45;;
54919;SDS011;63804;53.120;8.764;2023-06-14T01:26:38;6.82;;;2.80;;
54919;SDS011;63804;53.120;8.764;2023-06-14T01:29:13;7.60;;;2.50;;
54919;SDS011;63804;53.120;8.764;2023-06-14T01:31:44;6.50;;;2.38;;
54919;SDS011;63804;53.120;8.764;2023-06-14T01:34:13;5.00;;;2.67;;
54919;SDS011;63804;53.120;8.764;2023-06-14T01:36:40;6.53;;;2.50;;
54919;SDS011;63804;53.120;8.764;2023-06-14T01:39:14;6.75;;;2.40;;
54919;SDS011;63804;53.120;8.764;2023-06-14T01:41:42;4.93;;;2.60;;
54919;SDS011;63804;53.120;8.764;2023-06-14T01:44:11;6.35;;;2.70;;
54919;SDS011;63804;53.120;8.764;2023-06-14T01:46:40;7.93;;;2.72;;
54919;SDS011;63804;53.120;8.764;2023-06-14T01:49:09;7.70;;;2.60;;
54919;SDS011;63804;53.120;8.764;2023-06-14T01:51:36;5.43;;;2.40;;
54919;SDS011;63804;53.120;8.764;2023-06-14T01:54:03;6.40;;;2.50;;
54919;SDS011;63804;53.120;8.764;2023-06-14T01:56:31;8.07;;;2.72;;
54919;SDS011;63804;53.120;8.764;2023-06-14T01:58:59;9.68;;;3.10;;
54919;SDS011;63804;53.120;8.764;2023-06-14T02:01:26;5.95;;;2.78;;
54919;SDS011;63804;53.120;8.764;2023-06-14T02:03:53;7.72;;;2.75;;
54919;SDS011;63804;53.120;8.764;2023-06-14T02:06:21;6.07;;;2.83;;
54919;SDS011;63804;53.120;8.764;2023-06-14T02:08:48;7.38;;;3.10;;
54919;SDS011;63804;53.120;8.764;2023-06-14T02:11:15;6.15;;;2.60;;
54919;SDS011;63804;53.120;8.764;2023-06-14T02:13:42;7.43;;;2.92;;
54919;SDS011;63804;53.120;8.764;2023-06-14T02:16:09;10.63;;;3.33;;
54919;SDS011;63804;53.120;8.764;2023-06-14T02:18:37;10.13;;;3.17;;
54919;SDS011;63804;53.120;8.764;2023-06-14T02:21:04;8.60;;;3.25;;
54919;SDS011;63804;53.120;8.764;2023-06-14T02:23:31;5.82;;;3.00;;
54919;SDS011;63804;53.120;8.764;2023-06-14T02:26:01;7.13;;;2.97;;
54919;SDS011;63804;53.120;8.764;2023-06-14T02:28:29;6.72;;;2.75;;
54919;SDS011;63804;53.120;8.764;2023-06-14T02:30:57;6.20;;;3.00;;
54919;SDS011;63804;53.120;8.764;2023-06-14T02:33:24;7.15;;;3.15;;
54919;SDS011;63804;53.120;8.764;2023-06-14T02:35:51;7.18;;;2.95;;
54919;SDS011;63804;53.120;8.764;2023-06-14T02:38:19;8.23;;;3.40;;
54919;SDS011;63804;53.120;8.764;2023-06-14T02:40:47;6.68;;;2.88;;
54919;SDS011;63804;53.120;8.764;2023-06-14T02:43:14;7.65;;;2.90;;
54919;SDS011;63804;53.120;8.764;2023-06-14T02:45:44;6.38;;;2.70;;
54919;SDS011;63804;53.120;8.764;2023-06-14T02:48:11;6.85;;;3.30;;
54919;SDS011;63804;53.120;8.764;2023-06-14T02:50:38;12.45;;;3.60;;
54919;SDS011;63804;53.120;8.764;2023-06-14T02:53:05;8.00;;;3.10;;
54919;SDS011;63804;53.120;8.764;2023-06-14T02:55:33;6.55;;;3.10;;
54919;SDS011;63804;53.120;8.764;2023-06-14T02:58:00;6.45;;;2.90;;
54919;SDS011;63804;53.120;8.764;2023-06-14T03:00:27;9.18;;;3.10;;
54919;SDS011;63804;53.120;8.764;2023-06-14T03:02:57;7.90;;;3.40;;
54919;SDS011;63804;53.120;8.764;2023-06-14T03:05:24;8.75;;;3.17;;
54919;SDS011;63804;53.120;8.764;2023-06-14T03:07:51;7.30;;;3.40;;
54919;SDS011;63804;53.120;8.764;2023-06-14T03:10:20;8.60;;;3.03;;
54919;SDS011;63804;53.120;8.764;2023-06-14T03:12:48;7.07;;;3.30;;
54919;SDS011;63804;53.120;8.764;2023-06-14T03:15:16;8.45;;;3.50;;
54919;SDS011;63804;53.120;8.764;2023-06-14T03:17:44;7.43;;;3.00;;
54919;SDS011;63804;53.120;8.764;2023-06-14T03:20:12;8.40;;;3.00;;
54919;SDS011;63804;53.120;8.764;2023-06-14T03:22:40;8.98;;;3.45;;
54919;SDS011;63804;53.120;8.764;2023-06-14T03:25:07;8.90;;;3.47;;
54919;SDS011;63804;53.120;8.764;2023-06-14T03:27:36;8.40;;;3.47;;
54919;SDS011;63804;53.120;8.764;2023-06-14T03:30:03;10.02;;;3.60;;
54919;SDS011;63804;53.120;8.764;2023-06-14T03:32:31;6.22;;;3.20;;
54919;SDS011;63804;53.120;8.764;2023-06-14T03:35:00;10.00;;;3.75;;
54919;SDS011;63804;53.120;8.764;2023-06-14T03:37:27;5.97;;;3.15;;
54919;SDS011;63804;53.120;8.764;2023-06-14T03:39:55;8.13;;;3.40;;
54919;SDS011;63804;53.120;8.764;2023-06-14T03:42:22;6.57;;;3.50;;
54919;SDS011;63804;53.120;8.764;2023-06-14T03:44:49;7.75;;;3.55;;
54919;SDS011;63804;53.120;8.764;2023-06-14T03:47:16;7.90;;;3.45;;
54919;SDS011;63804;53.120;8.764;2023-06-14T03:49:44;7.05;;;3.30;;
54919;SDS011;63804;53.120;8.764;2023-06-14T03:52:11;8.95;;;3.55;;
54919;SDS011;63804;53.120;8.764;2023-06-14T03:54:38;8.93;;;4.00;;
54919;SDS011;63804;53.120;8.764;2023-06-14T03:57:08;10.45;;;3.90;;
54919;SDS011;63804;53.120;8.764;2023-06-14T03:59:35;7.53;;;3.80;;
54919;SDS011;63804;53.120;8.764;2023-06-14T04:02:03;8.15;;;3.63;;
54919;SDS011;63804;53.120;8.764;2023-06-14T04:04:30;8.85;;;3.70;;
54919;SDS011;63804;53.120;8.764;2023-06-14T04:06:58;8.75;;;3.55;;
54919;SDS011;63804;53.120;8.764;2023-06-14T04:09:27;6.90;;;3.30;;
54919;SDS011;63804;53.120;8.764;2023-06-14T04:11:55;6.93;;;3.47;;
54919;SDS011;63804;53.120;8.764;2023-06-14T04:14:22;8.00;;;3.63;;
54919;SDS011;63804;53.120;8.764;2023-06-14T04:16:49;7.38;;;3.38;;
54919;SDS011;63804;53.120;8.764;2023-06-14T04:19:17;8.30;;;3.45;;
54919;SDS011;63804;53.120;8.764;2023-06-14T04:21:44;5.70;;;3.22;;
54919;SDS011;63804;53.120;8.764;2023-06-14T04:24:11;8.02;;;3.70;;
54919;SDS011;63804;53.120;8.764;2023-06-14T04:26:41;10.27;;;3.63;;
54919;SDS011;63804;53.120;8.764;2023-06-14T04:29:11;11.38;;;3.80;;
54919;SDS011;63804;53.120;8.764;2023-06-14T04:31:43;7.93;;;3.40;;
54919;SDS011;63804;53.120;8.764;2023-06-14T04:34:12;6.35;;;3.35;;
54919;SDS011;63804;53.120;8.764;2023-06-14T04:36:45;7.40;;;3.70;;
54919;SDS011;63804;53.120;8.764;2023-06-14T04:39:20;7.55;;;4.03;;
54919;SDS011;63804;53.120;8.764;2023-06-14T04:41:48;8.13;;;3.45;;
54919;SDS011;63804;53.120;8.764;2023-06-14T04:44:19;6.63;;;3.42;;
54919;SDS011;63804;53.120;8.764;2023-06-14T04:46:47;6.38;;;3.40;;
54919;SDS011;63804;53.120;8.764;2023-06-14T04:49:14;9.65;;;3.60;;
54919;SDS011;63804;53.120;8.764;2023-06-14T04:51:42;8.65;;;3.53;;
54919;SDS011;63804;53.120;8.764;2023-06-14T04:54:11;5.97;;;2.97;;
54919;SDS011;63804;53.120;8.764;2023-06-14T04:56:42;7.35;;;3.60;;
54919;SDS011;63804;53.120;8.764;2023-06-14T04:59:09;7.53;;;3.30;;
54919;SDS011;63804;53.120;8.764;2023-06-14T05:01:38;6.78;;;3.65;;
54919;SDS011;63804;53.120;8.764;2023-06-14T05:04:06;10.75;;;4.03;;
54919;SDS011;63804;53.120;8.764;2023-06-14T05:06:33;7.78;;;3.45;;
54919;SDS011;63804;53.120;8.764;2023-06-14T05:09:00;8.70;;;3.55;;
54919;SDS011;63804;53.120;8.764;2023-06-14T05:11:27;9.77;;;3.38;;
54919;SDS011;63804;53.120;8.764;2023-06-14T05:13:55;8.40;;;3.38;;
54919;SDS011;63804;53.120;8.764;2023-06-14T05:16:22;6.88;;;3.70;;
54919;SDS011;63804;53.120;8.764;2023-06-14T05:18:52;10.75;;;3.90;;
54919;SDS011;63804;53.120;8.764;2023-06-14T05:21:19;7.63;;;3.42;;
54919;SDS011;63804;53.120;8.764;2023-06-14T05:23:47;8.75;;;4.00;;
54919;SDS011;63804;53.120;8.764;2023-06-14T05:26:14;8.10;;;3.85;;
54919;SDS011;63804;53.120;8.764;2023-06-14T05:28:41;7.75;;;3.50;;
54919;SDS011;63804;53.120;8.764;2023-06-14T05:31:09;11.75;;;4.20;;
54919;SDS011;63804;53.120;8.764;2023-06-14T05:33:36;7.80;;;3.40;;
54919;SDS011;63804;53.120;8.764;2023-06-14T05:36:04;8.43;;;3.65;;
54919;SDS011;63804;53.120;8.764;2023-06-14T05:38:33;8.25;;;3.55;;
54919;SDS011;63804;53.120;8.764;2023-06-14T05:41:00;7.32;;;3.40;;
54919;SDS011;63804;53.120;8.764;2023-06-14T05:43:28;9.32;;;3.47;;
54919;SDS011;63804;53.120;8.764;2023-06-14T05:45:55;7.88;;;3.22;;
54919;SDS011;63804;53.120;8.764;2023-06-14T05:48:22;10.00;;;3.63;;
54919;SDS011;63804;53.120;8.764;2023-06-14T05:50:49;9.40;;;3.70;;
54919;SDS011;63804;53.120;8.764;2023-06-14T05:53:17;6.78;;;3.10;;
54919;SDS011;63804;53.120;8.764;2023-06-14T05:55:44;8.85;;;3.67;;
54919;SDS011;63804;53.120;8.764;2023-06-14T05:58:11;9.07;;;3.70;;
54919;SDS011;63804;53.120;8.764;2023-06-14T06:00:40;8.70;;;3.60;;
54919;SDS011;63804;53.120;8.764;2023-06-14T06:03:07;10.15;;;3.60;;
54919;SDS011;63804;53.120;8.764;2023-06-14T06:05:38;7.50;;;3.15;;
54919;SDS011;63804;53.120;8.764;2023-06-14T06:08:05;9.73;;;3.00;;
54919;SDS011;63804;53.120;8.764;2023-06-14T06:10:33;9.30;;;2.80;;
54919;SDS011;63804;53.120;8.764;2023-06-14T06:13:00;8.25;;;2.90;;
54919;SDS011;63804;53.120;8.764;2023-06-14T06:15:27;8.90;;;3.38;;
54919;SDS011;63804;53.120;8.764;2023-06-14T06:17:54;4.70;;;2.40;;
54919;SDS011;63804;53.120;8.764;2023-06-14T06:20:23;5.97;;;2.80;;
54919;SDS011;63804;53.120;8.764;2023-06-14T06:22:56;8.40;;;2.83;;
54919;SDS011;63804;53.120;8.764;2023-06-14T06:25:25;6.93;;;2.72;;
54919;SDS011;63804;53.120;8.764;2023-06-14T06:27:54;8.90;;;3.17;;
54919;SDS011;63804;53.120;8.764;2023-06-14T06:30:22;8.95;;;2.88;;
54919;SDS011;63804;53.120;8.764;2023-06-14T06:32:50;9.07;;;2.95;;
54919;SDS011;63804;53.120;8.764;2023-06-14T06:35:18;7.57;;;2.83;;
54919;SDS011;63804;53.120;8.764;2023-06-14T06:37:45;6.13;;;2.75;;
54919;SDS011;63804;53.120;8.764;2023-06-14T06:40:13;6.70;;;2.67;;
54919;SDS011;63804;53.120;8.764;2023-06-14T06:42:40;6.53;;;2.78;;
54919;SDS011;63804;53.120;8.764;2023-06-14T06:45:08;8.38;;;4.00;;
54919;SDS011;63804;53.120;8.764;2023-06-14T06:47:35;5.30;;;2.55;;
54919;SDS011;63804;53.120;8.764;2023-06-14T06:50:02;5.60;;;2.35;;
54919;SDS011;63804;53.120;8.764;2023-06-14T06:52:30;7.32;;;2.75;;
54919;SDS011;63804;53.120;8.764;2023-06-14T06:54:57;6.57;;;2.63;;
54919;SDS011;63804;53.120;8.764;2023-06-14T06:57:24;6.55;;;2.80;;
54919;SDS011;63804;53.120;8.764;2023-06-14T06:59:52;5.80;;;2.58;;
54919;SDS011;63804;53.120;8.764;2023-06-14T07:02:19;7.25;;;2.20;;
54919;SDS011;63804;53.120;8.764;2023-06-14T07:04:47;6.50;;;2.42;;
54919;SDS011;63804;53.120;8.764;2023-06-14T07:07:14;6.72;;;2.40;;
54919;SDS011;63804;53.120;8.764;2023-06-14T07:09:41;4.55;;;2.20;;
54919;SDS011;63804;53.120;8.764;2023-06-14T07:12:09;5.00;;;1.98;;
54919;SDS011;63804;53.120;8.764;2023-06-14T07:14:38;4.88;;;2.22;;
54919;SDS011;63804;53.120;8.764;2023-06-14T07:17:05;5.00;;;2.20;;
54919;SDS011;63804;53.120;8.764;2023-06-14T07:19:32;6.75;;;2.47;;
54919;SDS011;63804;53.120;8.764;2023-06-14T07:22:00;5.97;;;1.98;;
54919;SDS011;63804;53.120;8.764;2023-06-14T07:24:27;3.92;;;2.10;;
54919;SDS011;63804;53.120;8.764;2023-06-14T07:26:55;5.00;;;1.90;;
54919;SDS011;63804;53.120;8.764;2023-06-14T07:29:23;5.38;;;2.00;;
54919;SDS011;63804;53.120;8.764;2023-06-14T07:31:50;5.90;;;2.38;;
54919;SDS011;63804;53.120;8.764;2023-06-14T07:34:17;4.38;;;1.90;;
54919;SDS011;63804;53.120;8.764;2023-06-14T07:36:44;4.07;;;1.80;;
54919;SDS011;63804;53.120;8.764;2023-06-14T07:39:13;13.57;;;2.20;;
54919;SDS011;63804;53.120;8.764;2023-06-14T07:41:40;4.82;;;1.90;;
54919;SDS011;63804;53.120;8.764;2023-06-14T07:44:07;6.53;;;2.10;;
54919;SDS011;63804;53.120;8.764;2023-06-14T07:46:35;8.18;;;2.05;;
54919;SDS011;63804;53.120;8.764;2023-06-14T07:49:02;5.07;;;2.10;;
54919;SDS011;63804;53.120;8.764;2023-06-14T07:51:29;7.10;;;2.13;;
54919;SDS011;63804;53.120;8.764;2023-06-14T07:53:58;5.63;;;2.10;;
54919;SDS011;63804;53.120;8.764;2023-06-14T07:56:28;4.47;;;1.92;;
54919;SDS011;63804;53.120;8.764;2023-06-14T07:58:55;5.53;;;2.10;;
54919;SDS011;63804;53.120;8.764;2023-06-14T08:01:22;6.07;;;2.05;;
54919;SDS011;63804;53.120;8.764;2023-06-14T08:03:52;4.90;;;2.30;;
54919;SDS011;63804;53.120;8.764;2023-06-14T08:06:19;5.53;;;2.40;;
54919;SDS011;63804;53.120;8.764;2023-06-14T08:08:47;7.72;;;2.30;;
54919;SDS011;63804;53.120;8.764;2023-06-14T08:11:14;2.85;;;1.60;;
54919;SDS011;63804;53.120;8.764;2023-06-14T09:44:15;5.88;;;2.50;;
54919;SDS011;63804;53.120;8.764;2023-06-14T09:46:47;6.10;;;2.53;;
54919;SDS011;63804;53.120;8.764;2023-06-14T09:49:15;6.97;;;2.17;;
54919;SDS011;63804;53.120;8.764;2023-06-14T09:51:43;9.15;;;2.58;;
54919;SDS011;63804;53.120;8.764;2023-06-14T09:54:16;6.97;;;2.25;;
54919;SDS011;63804;53.120;8.764;2023-06-14T09:56:47;4.22;;;2.38;;
54919;SDS011;63804;53.120;8.764;2023-06-14T09:59:21;4.72;;;2.10;;
54919;SDS011;63804;53.120;8.764;2023-06-14T10:01:57;8.02;;;2.40;;
54919;SDS011;63804;53.120;8.764;2023-06-14T10:04:26;8.07;;;2.35;;
54919;SDS011;63804;53.120;8.764;2023-06-14T10:06:55;3.92;;;2.40;;
54919;SDS011;63804;53.120;8.764;2023-06-14T10:09:23;5.68;;;2.35;;
54919;SDS011;63804;53.120;8.764;2023-06-14T10:11:51;8.30;;;2.40;;
54919;SDS011;63804;53.120;8.764;2023-06-14T10:14:19;4.72;;;2.15;;
54919;SDS011;63804;53.120;8.764;2023-06-14T10:19:27;6.57;;;2.53;;
54919;SDS011;63804;53.120;8.764;2023-06-14T10:22:05;6.25;;;2.35;;
54919;SDS011;63804;53.120;8.764;2023-06-14T10:24:40;5.50;;;2.58;;
54919;SDS011;63804;53.120;8.764;2023-06-14T10:27:09;6.22;;;2.42;;
54919;SDS011;63804;53.120;8.764;2023-06-14T10:32:23;7.97;;;2.85;;
54919;SDS011;63804;53.120;8.764;2023-06-14T10:34:55;7.53;;;2.25;;
54919;SDS011;63804;53.120;8.764;2023-06-14T10:37:24;5.77;;;3.00;;
54919;SDS011;63804;53.120;8.764;2023-06-14T10:39:52;6.75;;;2.22;;
54919;SDS011;63804;53.120;8.764;2023-06-14T10:42:23;5.53;;;2.35;;
54919;SDS011;63804;53.120;8.764;2023-06-14T10:44:55;4.05;;;2.03;;
54919;SDS011;63804;53.120;8.764;2023-06-14T10:47:34;6.78;;;2.33;;
54919;SDS011;63804;53.120;8.764;2023-06-14T10:52:35;5.63;;;2.22;;
54919;SDS011;63804;53.120;8.764;2023-06-14T10:55:12;4.32;;;2.22;;
54919;SDS011;63804;53.120;8.764;2023-06-14T10:57:52;7.28;;;2.15;;
54919;SDS011;63804;53.120;8.764;2023-06-14T11:00:26;4.47;;;2.30;;
54919;SDS011;63804;53.120;8.764;2023-06-14T11:05:57;4.72;;;2.58;;
54919;SDS011;63804;53.120;8.764;2023-06-14T11:11:08;8.23;;;2.67;;
54919;SDS011;63804;53.120;8.764;2023-06-14T11:13:37;7.55;;;2.50;;
54919;SDS011;63804;53.120;8.764;2023-06-14T11:16:12;9.75;;;2.40;;
54919;SDS011;63804;53.120;8.764;2023-06-14T11:18:44;8.70;;;2.50;;
54919;SDS011;63804;53.120;8.764;2023-06-14T11:21:15;7.80;;;2.47;;
54919;SDS011;63804;53.120;8.764;2023-06-14T11:23:50;6.97;;;2.35;;
54919;SDS011;63804;53.120;8.764;2023-06-14T11:26:28;7.85;;;3.05;;
54919;SDS011;63804;53.120;8.764;2023-06-14T11:29:00;5.20;;;2.58;;
54919;SDS011;63804;53.120;8.764;2023-06-14T11:31:28;11.15;;;4.47;;
54919;SDS011;63804;53.120;8.764;2023-06-14T11:33:59;5.68;;;2.85;;
54919;SDS011;63804;53.120;8.764;2023-06-14T11:36:27;7.68;;;3.60;;
54919;SDS011;63804;53.120;8.764;2023-06-14T11:39:07;7.00;;;2.72;;
54919;SDS011;63804;53.120;8.764;2023-06-14T11:41:39;4.50;;;2.55;;
54919;SDS011;63804;53.120;8.764;2023-06-14T11:44:08;4.93;;;2.72;;
54919;SDS011;63804;53.120;8.764;2023-06-14T11:46:36;10.55;;;2.95;;
54919;SDS011;63804;53.120;8.764;2023-06-14T11:49:03;7.03;;;3.50;;
54919;SDS011;63804;53.120;8.764;2023-06-14T11:51:32;7.55;;;3.00;;
54919;SDS011;63804;53.120;8.764;2023-06-14T11:54:03;5.93;;;2.60;;
54919;SDS011;63804;53.120;8.764;2023-06-14T11:56:31;6.50;;;2.88;;
54919;SDS011;63804;53.120;8.764;2023-06-14T11:58:59;8.80;;;2.63;;
54919;SDS011;63804;53.120;8.764;2023-06-14T12:01:29;6.85;;;2.53;;
54919;SDS011;63804;53.120;8.764;2023-06-14T12:03:58;6.40;;;2.63;;
54919;SDS011;63804;53.120;8.764;2023-06-14T12:06:26;5.57;;;2.70;;
54919;SDS011;63804;53.120;8.764;2023-06-14T12:09:07;6.60;;;2.47;;
54919;SDS011;63804;53.120;8.764;2023-06-14T12:11:40;7.35;;;2.78;;
54919;SDS011;63804;53.120;8.764;2023-06-14T12:14:10;7.10;;;2.97;;
54919;SDS011;63804;53.120;8.764;2023-06-14T12:16:38;9.68;;;4.53;;
54919;SDS011;63804;53.120;8.764;2023-06-14T12:19:08;6.38;;;2.80;;
54919;SDS011;63804;53.120;8.764;2023-06-14T12:21:37;5.90;;;2.78;;
54919;SDS011;63804;53.120;8.764;2023-06-14T12:24:07;5.35;;;2.80;;
54919;SDS011;63804;53.120;8.764;2023-06-14T12:26:39;7.13;;;2.72;;
54919;SDS011;63804;53.120;8.764;2023-06-14T12:29:08;12.10;;;3.10;;
54919;SDS011;63804;53.120;8.764;2023-06-14T12:31:35;9.05;;;2.67;;
54919;SDS011;63804;53.120;8.764;2023-06-14T12:34:02;6.40;;;2.60;;
54919;SDS011;63804;53.120;8.764;2023-06-14T12:36:30;8.57;;;2.70;;
54919;SDS011;63804;53.120;8.764;2023-06-14T12:38:58;7.68;;;2.75;;
54919;SDS011;63804;53.120;8.764;2023-06-14T12:41:26;6.20;;;2.70;;
54919;SDS011;63804;53.120;8.764;2023-06-14T12:43:54;7.55;;;2.53;;
54919;SDS011;63804;53.120;8.764;2023-06-14T12:46:21;6.45;;;2.42;;
54919;SDS011;63804;53.120;8.764;2023-06-14T12:48:48;5.50;;;2.65;;
54919;SDS011;63804;53.120;8.764;2023-06-14T12:51:16;7.30;;;2.80;;
54919;SDS011;63804;53.120;8.764;2023-06-14T12:53:43;8.88;;;2.95;;
54919;SDS011;63804;53.120;8.764;2023-06-14T12:56:10;6.50;;;2.58;;
54919;SDS011;63804;53.120;8.764;2023-06-14T12:58:38;6.63;;;2.67;;
54919;SDS011;63804;53.120;8.764;2023-06-14T13:01:05;5.95;;;2.60;;
54919;SDS011;63804;53.120;8.764;2023-06-14T13:03:32;5.13;;;2.65;;
54919;SDS011;63804;53.120;8.764;2023-06-14T13:06:03;8.65;;;2.60;;
54919;SDS011;63804;53.120;8.764;2023-06-14T13:08:31;5.10;;;2.40;;
54919;SDS011;63804;53.120;8.764;2023-06-14T13:10:58;5.00;;;2.35;;
54919;SDS011;63804;53.120;8.764;2023-06-14T13:13:25;7.82;;;3.00;;
54919;SDS011;63804;53.120;8.764;2023-06-14T13:15:52;7.90;;;2.75;;
54919;SDS011;63804;53.120;8.764;2023-06-14T13:18:20;5.68;;;2.88;;
54919;SDS011;63804;53.120;8.764;2023-06-14T13:20:47;5.10;;;2.75;;
54919;SDS011;63804;53.120;8.764;2023-06-14T13:23:15;6.47;;;2.90;;
54919;SDS011;63804;53.120;8.764;2023-06-14T13:25:43;5.75;;;2.60;;
54919;SDS011;63804;53.120;8.764;2023-06-14T13:28:11;8.00;;;2.90;;
54919;SDS011;63804;53.120;8.764;2023-06-14T13:30:38;6.20;;;3.00;;
54919;SDS011;63804;53.120;8.764;2023-06-14T13:33:05;5.82;;;2.72;;
54919;SDS011;63804;53.120;8.764;2023-06-14T13:35:33;9.00;;;2.92;;
54919;SDS011;63804;53.120;8.764;2023-06-14T13:38:00;8.25;;;2.40;;
54919;SDS011;63804;53.120;8.764;2023-06-14T13:40:28;12.15;;;3.13;;
54919;SDS011;63804;53.120;8.764;2023-06-14T13:42:55;4.15;;;2.45;;
54919;SDS011;63804;53.120;8.764;2023-06-14T13:45:22;7.43;;;3.00;;
54919;SDS011;63804;53.120;8.764;2023-06-14T13:47:50;9.07;;;3.15;;
54919;SDS011;63804;53.120;8.764;2023-06-14T13:50:17;7.68;;;2.80;;
54919;SDS011;63804;53.120;8.764;2023-06-14T13:52:44;5.57;;;2.78;;
54919;SDS011;63804;53.120;8.764;2023-06-14T13:55:12;4.18;;;2.30;;
54919;SDS011;63804;53.120;8.764;2023-06-14T13:57:39;6.82;;;2.47;;
54919;SDS011;63804;53.120;8.764;2023-06-14T14:00:06;8.43;;;2.85;;
54919;SDS011;63804;53.120;8.764;2023-06-14T14:02:35;6.60;;;3.15;;
54919;SDS011;63804;53.120;8.764;2023-06-14T14:05:03;9.07;;;2.63;;
54919;SDS011;63804;53.120;8.764;2023-06-14T14:07:30;6.28;;;3.30;;
54919;SDS011;63804;53.120;8.764;2023-06-14T14:09:57;4.97;;;2.80;;
54919;SDS011;63804;53.120;8.764;2023-06-14T14:12:25;4.70;;;2.67;;
54919;SDS011;63804;53.120;8.764;2023-06-14T14:14:52;5.65;;;2.83;;
54919;SDS011;63804;53.120;8.764;2023-06-14T14:17:19;4.63;;;2.33;;
54919;SDS011;63804;53.120;8.764;2023-06-14T14:19:46;6.43;;;2.83;;
54919;SDS011;63804;53.120;8.764;2023-06-14T14:22:14;7.72;;;3.30;;
54919;SDS011;63804;53.120;8.764;2023-06-14T14:24:41;5.43;;;2.90;;
54919;SDS011;63804;53.120;8.764;2023-06-14T14:27:08;5.15;;;2.55;;
54919;SDS011;63804;53.120;8.764;2023-06-14T14:29:37;7.18;;;2.80;;
54919;SDS011;63804;53.120;8.764;2023-06-14T14:32:04;6.25;;;2.80;;
54919;SDS011;63804;53.120;8.764;2023-06-14T14:34:32;9.55;;;3.17;;
54919;SDS011;63804;53.120;8.764;2023-06-14T14:36:59;5.93;;;2.80;;
54919;SDS011;63804;53.120;8.764;2023-06-14T14:39:27;7.07;;;2.50;;
54919;SDS011;63804;53.120;8.764;2023-06-14T14:41:54;7.07;;;2.83;;
54919;SDS011;63804;53.120;8.764;2023-06-14T14:44:21;5.88;;;2.78;;
54919;SDS011;63804;53.120;8.764;2023-06-14T14:46:49;7.45;;;2.95;;
54919;SDS011;63804;53.120;8.764;2023-06-14T14:49:16;8.18;;;2.97;;
54919;SDS011;63804;53.120;8.764;2023-06-14T14:51:43;7.15;;;2.70;;
54919;SDS011;63804;53.120;8.764;2023-06-14T14:54:11;6.38;;;2.72;;
54919;SDS011;63804;53.120;8.764;2023-06-14T14:56:38;7.40;;;2.63;;
54919;SDS011;63804;53.120;8.764;2023-06-14T14:59:05;6.30;;;2.70;;
54919;SDS011;63804;53.120;8.764;2023-06-14T15:01:33;9.02;;;3.30;;
54919;SDS011;63804;53.120;8.764;2023-06-14T15:04:00;9.68;;;3.38;;
54919;SDS011;63804;53.120;8.764;2023-06-14T15:06:28;8.25;;;2.67;;
54919;SDS011;63804;53.120;8.764;2023-06-14T15:08:55;7.00;;;3.10;;
54919;SDS011;63804;53.120;8.764;2023-06-14T15:11:22;7.78;;;3.50;;
54919;SDS011;63804;53.120;8.764;2023-06-14T15:13:50;7.75;;;2.92;;
54919;SDS011;63804;53.120;8.764;2023-06-14T15:16:17;6.38;;;2.58;;
54919;SDS011;63804;53.120;8.764;2023-06-14T15:18:44;6.53;;;2.53;;
54919;SDS011;63804;53.120;8.764;2023-06-14T15:21:12;9.80;;;2.80;;
54919;SDS011;63804;53.120;8.764;2023-06-14T15:23:39;5.50;;;2.60;;
54919;SDS011;63804;53.120;8.764;2023-06-14T15:26:07;9.52;;;2.90;;
54919;SDS011;63804;53.120;8.764;2023-06-14T15:28:34;6.60;;;2.83;;
54919;SDS011;63804;53.120;8.764;2023-06-14T15:31:01;5.18;;;2.90;;
54919;SDS011;63804;53.120;8.764;2023-06-14T15:33:29;7.95;;;3.17;;
54919;SDS011;63804;53.120;8.764;2023-06-14T15:35:56;6.50;;;3.40;;
54919;SDS011;63804;53.120;8.764;2023-06-14T15:38:23;8.73;;;2.72;;
54919;SDS011;63804;53.120;8.764;2023-06-14T15:40:50;6.25;;;2.50;;
54919;SDS011;63804;53.120;8.764;2023-06-14T15:43:18;6.30;;;2.60;;
54919;SDS011;63804;53.120;8.764;2023-06-14T15:45:45;7.95;;;2.97;;
54919;SDS011;63804;53.120;8.764;2023-06-14T15:48:12;7.95;;;2.92;;
54919;SDS011;63804;53.120;8.764;2023-06-14T15:50:40;10.35;;;3.20;;
54919;SDS011;63804;53.120;8.764;2023-06-14T15:53:07;5.85;;;3.00;;
54919;SDS011;63804;53.120;8.764;2023-06-14T15:55:34;9.00;;;3.22;;
54919;SDS011;63804;53.120;8.764;2023-06-14T15:58:01;6.28;;;3.22;;
54919;SDS011;63804;53.120;8.764;2023-06-14T16:00:29;5.85;;;2.72;;
54919;SDS011;63804;53.120;8.764;2023-06-14T16:02:57;7.15;;;3.00;;
54919;SDS011;63804;53.120;8.764;2023-06-14T16:05:25;7.22;;;2.72;;
54919;SDS011;63804;53.120;8.764;2023-06-14T16:07:52;4.38;;;2.55;;
54919;SDS011;63804;53.120;8.764;2023-06-14T16:10:20;6.40;;;2.70;;
54919;SDS011;63804;53.120;8.764;2023-06-14T16:12:47;8.70;;;3.10;;
54919;SDS011;63804;53.120;8.764;2023-06-14T16:15:14;9.82;;;3.63;;
54919;SDS011;63804;53.120;8.764;2023-06-14T16:17:41;8.10;;;3.00;;
54919;SDS011;63804;53.120;8.764;2023-06-14T16:20:09;6.25;;;2.78;;
54919;SDS011;63804;53.120;8.764;2023-06-14T16:22:37;7.93;;;3.05;;
54919;SDS011;63804;53.120;8.764;2023-06-14T16:25:04;7.70;;;3.80;;
54919;SDS011;63804;53.120;8.764;2023-06-14T16:27:33;8.82;;;3.08;;
54919;SDS011;63804;53.120;8.764;2023-06-14T16:30:00;8.60;;;3.25;;
54919;SDS011;63804;53.120;8.764;2023-06-14T16:32:28;8.02;;;3.05;;
54919;SDS011;63804;53.120;8.764;2023-06-14T16:34:55;9.13;;;3.92;;
54919;SDS011;63804;53.120;8.764;2023-06-14T16:37:22;8.82;;;3.35;;
54919;SDS011;63804;53.120;8.764;2023-06-14T16:39:50;6.28;;;2.97;;
54919;SDS011;63804;53.120;8.764;2023-06-14T16:42:17;7.97;;;3.80;;